Terminal Aerodrome Forecast
Issued by NWS

Home | Current Version | Previous Version | Text Only | Print | Product List | Glossary On
Versions: 1 2 3 4 5 6 7 8 9 10 11 12 13 14 15 16 17 18 19 20 21 22 23 24 25
000
FTUS44 KHGX 291128
TAFCXO
TAF
KCXO 291128Z 2912/3012 15005KT P6SM VCSH SCT025 BKN040 OVC080
     FM291400 18010KT P6SM VCTS BKN025CB BKN040 OVC250
      TEMPO 2914/2916 VRB10G25KT 3SM TSRA BKN015CB
     FM291700 18008KT P6SM BKN050 OVC120
     FM292200 20008KT P6SM VCTS BKN035CB BKN250
     FM300200 24006KT P6SM SCT050 BKN250
     FM300900 30010KT P6SM BKN250=

USA.gov is the U.S. government's official web portal to all federal, state and local government web resources and services.